Time;durP1;ratioP1;P1;durP2;ratioP2;P2;SDS_P1;SDS_P2;PMS_P1;PMS_P2;Temp;Humidity;BMP_temperature;BMP_pressure;BME280_temperature;BME280_humidity;BME280_pressure;Samples;Min_cycle;Max_cycle;Signal;HPM_P1;HPM_P2
2022/07/21 00:01:25;;;;;;;17.17;8.90;;;;;;;;;;5008274;28;20030;-43
2022/07/21 00:03:50;;;;;;;15.63;8.82;;;;;;;;;;5006952;28;20491;-47
2022/07/21 00:06:16;;;;;;;13.85;8.93;;;;;;;;;;5006802;28;20034;-42
2022/07/21 00:08:42;;;;;;;14.13;8.75;;;;;;;;;;5007707;28;20479;-43
2022/07/21 00:11:08;;;;;;;15.23;8.73;;;;;;;;;;5006951;28;20041;-43
2022/07/21 00:13:33;;;;;;;21.85;9.27;;;;;;;;;;5007364;28;20034;-43
2022/07/21 00:15:59;;;;;;;17.02;8.98;;;;;;;;;;5006787;28;20038;-44
2022/07/21 00:18:28;;;;;;;20.85;9.68;;;;;;;;;;5004987;28;20030;-42
2022/07/21 00:20:57;;;;;;;12.05;8.80;;;;;;;;;;5007577;28;20026;-42
2022/07/21 00:23:24;;;;;;;12.40;9.45;;;;;;;;;;5005790;28;20398;-43
2022/07/21 00:25:51;;;;;;;13.10;8.55;;;;;;;;;;5011775;28;20041;-43
2022/07/21 00:28:17;;;;;;;10.57;8.68;;;;;;;;;;5009744;28;20037;-42
2022/07/21 00:30:43;;;;;;;13.00;8.93;;;;;;;;;;5012142;28;20533;-42
2022/07/21 00:33:09;;;;;;;15.25;8.73;;;;;;;;;;5009744;28;20109;-45
2022/07/21 00:35:34;;;;;;;14.07;9.23;;;;;;;;;;5011182;28;20034;-44
2022/07/21 00:38:00;;;;;;;13.10;8.75;;;;;;;;;;5010710;28;20141;-43
2022/07/21 00:40:26;;;;;;;13.93;9.57;;;;;;;;;;5011187;28;20465;-45
2022/07/21 00:42:53;;;;;;;11.98;8.13;;;;;;;;;;5007412;28;20513;-42
2022/07/21 00:45:19;;;;;;;18.67;8.50;;;;;;;;;;5006644;28;20033;-43
2022/07/21 00:47:45;;;;;;;12.23;8.85;;;;;;;;;;5009289;28;20018;-44
2022/07/21 00:50:18;;;;;;;14.20;8.70;;;;;;;;;;5009719;28;20025;-42
2022/07/21 00:52:45;;;;;;;12.68;8.43;;;;;;;;;;5011184;28;20106;-43
2022/07/21 00:55:13;;;;;;;17.70;8.82;;;;;;;;;;5006897;28;20052;-42
2022/07/21 00:57:39;;;;;;;11.02;8.80;;;;;;;;;;5008098;28;20041;-43
2022/07/21 01:00:07;;;;;;;14.70;8.77;;;;;;;;;;5009321;28;20387;-43
2022/07/21 01:02:36;;;;;;;19.55;9.38;;;;;;;;;;5008621;28;20042;-46
2022/07/21 01:05:08;;;;;;;11.35;9.10;;;;;;;;;;5011819;28;20037;-45
2022/07/21 01:07:34;;;;;;;12.95;8.73;;;;;;;;;;5008070;28;20437;-42
2022/07/21 01:10:00;;;;;;;15.57;9.15;;;;;;;;;;5010118;28;20034;-41
2022/07/21 01:12:26;;;;;;;18.25;9.02;;;;;;;;;;5010606;28;20038;-42
2022/07/21 01:14:52;;;;;;;15.75;9.18;;;;;;;;;;5009936;28;20414;-42
2022/07/21 01:17:18;;;;;;;14.30;8.65;;;;;;;;;;5010177;28;20064;-44
2022/07/21 01:19:44;;;;;;;10.85;8.82;;;;;;;;;;5006875;28;20057;-42
2022/07/21 01:22:10;;;;;;;14.38;8.85;;;;;;;;;;5011025;28;20104;-45
2022/07/21 01:24:36;;;;;;;11.07;8.57;;;;;;;;;;5009495;28;20058;-42
2022/07/21 01:27:02;;;;;;;12.75;9.13;;;;;;;;;;5009466;28;20057;-42
2022/07/21 01:29:28;;;;;;;11.73;8.52;;;;;;;;;;5008778;28;20422;-42
2022/07/21 01:31:53;;;;;;;20.40;9.38;;;;;;;;;;5009301;28;20034;-44
2022/07/21 01:34:19;;;;;;;13.27;8.75;;;;;;;;;;5007729;28;20080;-43
2022/07/21 01:36:46;;;;;;;11.15;8.80;;;;;;;;;;5008568;28;20360;-44
2022/07/21 01:41:56;;;;;;;15.23;9.30;;;;;;;;;;5005285;28;20072;-43
2022/07/21 01:44:22;;;;;;;15.13;8.95;;;;;;;;;;5009733;28;20030;-43
2022/07/21 01:46:50;;;;;;;13.70;8.95;;;;;;;;;;5012816;28;20652;-44
2022/07/21 01:49:19;;;;;;;15.20;8.75;;;;;;;;;;5009595;28;20109;-44
2022/07/21 01:51:45;;;;;;;16.70;9.20;;;;;;;;;;5003241;28;20133;-43
2022/07/21 01:54:11;;;;;;;13.93;9.13;;;;;;;;;;5011067;28;20025;-42
2022/07/21 01:56:39;;;;;;;14.55;9.60;;;;;;;;;;5009259;28;20132;-42
2022/07/21 01:59:05;;;;;;;16.15;8.82;;;;;;;;;;5009405;28;20402;-42
2022/07/21 02:01:31;;;;;;;21.55;9.90;;;;;;;;;;5010569;28;20537;-42
2022/07/21 02:04:00;;;;;;;16.88;9.93;;;;;;;;;;5010600;28;20471;-42
2022/07/21 02:06:26;;;;;;;15.52;8.85;;;;;;;;;;5009003;28;20038;-43
2022/07/21 02:08:52;;;;;;;15.52;9.82;;;;;;;;;;5008157;28;20070;-42
2022/07/21 02:11:18;;;;;;;12.93;9.25;;;;;;;;;;5011032;28;20391;-45
2022/07/21 02:13:45;;;;;;;13.27;9.35;;;;;;;;;;5011712;28;20056;-44
2022/07/21 02:16:11;;;;;;;15.90;9.25;;;;;;;;;;5012494;28;20030;-44
2022/07/21 02:18:37;;;;;;;16.42;9.25;;;;;;;;;;5008253;28;20073;-45
2022/07/21 02:21:04;;;;;;;17.55;9.48;;;;;;;;;;5009427;28;20356;-44
2022/07/21 02:23:30;;;;;;;14.30;8.90;;;;;;;;;;5010145;28;20028;-45
2022/07/21 02:25:56;;;;;;;14.63;9.60;;;;;;;;;;5008510;28;20037;-42
2022/07/21 02:28:23;;;;;;;13.95;8.98;;;;;;;;;;5008052;28;20042;-42
2022/07/21 02:30:49;;;;;;;15.48;9.65;;;;;;;;;;5009113;28;20042;-46
2022/07/21 02:33:16;;;;;;;12.02;9.50;;;;;;;;;;5007609;28;20029;-42
2022/07/21 02:35:41;;;;;;;11.55;9.40;;;;;;;;;;5008029;28;20029;-42
2022/07/21 02:38:07;;;;;;;13.77;8.55;;;;;;;;;;5004429;28;20034;-44
2022/07/21 02:40:33;;;;;;;13.40;9.20;;;;;;;;;;5006541;28;20483;-44
2022/07/21 02:43:00;;;;;;;17.33;9.15;;;;;;;;;;5006238;28;20022;-45
2022/07/21 02:45:26;;;;;;;13.27;9.85;;;;;;;;;;5008711;28;20026;-42
2022/07/21 02:47:58;;;;;;;11.73;9.40;;;;;;;;;;5007523;28;20072;-44
2022/07/21 02:50:25;;;;;;;12.25;9.50;;;;;;;;;;5007410;28;20069;-46
2022/07/21 02:52:55;;;;;;;14.57;9.32;;;;;;;;;;5008178;28;20037;-42
2022/07/21 02:55:21;;;;;;;13.23;9.52;;;;;;;;;;5003050;28;20045;-42
2022/07/21 02:57:47;;;;;;;12.65;9.38;;;;;;;;;;5004897;28;20030;-42
2022/07/21 03:00:13;;;;;;;16.20;9.10;;;;;;;;;;5010290;28;20092;-43
2022/07/21 03:02:41;;;;;;;15.50;9.13;;;;;;;;;;5004065;28;20121;-46
2022/07/21 03:05:07;;;;;;;16.75;10.15;;;;;;;;;;4997032;28;20041;-42
2022/07/21 03:07:33;;;;;;;21.05;10.27;;;;;;;;;;5005771;28;20034;-44
2022/07/21 03:09:58;;;;;;;15.32;9.65;;;;;;;;;;5003350;28;20025;-47
2022/07/21 03:12:24;;;;;;;20.20;10.10;;;;;;;;;;5007785;28;20068;-44
2022/07/21 03:14:50;;;;;;;20.88;10.25;;;;;;;;;;5006952;28;20022;-45
2022/07/21 03:17:15;;;;;;;11.60;9.27;;;;;;;;;;5008872;28;20479;-42
2022/07/21 03:19:41;;;;;;;12.88;9.45;;;;;;;;;;5006113;28;20022;-42
2022/07/21 03:22:07;;;;;;;11.88;9.70;;;;;;;;;;5007365;28;20029;-46
2022/07/21 03:24:32;;;;;;;14.10;10.15;;;;;;;;;;5007934;28;20030;-44
2022/07/21 03:26:58;;;;;;;21.40;10.02;;;;;;;;;;5005851;28;20096;-42
2022/07/21 03:29:24;;;;;;;13.07;9.68;;;;;;;;;;5007211;28;20040;-42
2022/07/21 03:31:49;;;;;;;18.83;10.15;;;;;;;;;;5006561;28;20521;-43
2022/07/21 03:34:15;;;;;;;16.42;9.73;;;;;;;;;;5004947;28;20026;-42
2022/07/21 03:36:41;;;;;;;14.48;9.63;;;;;;;;;;5008108;28;20485;-44
2022/07/21 03:39:07;;;;;;;14.57;10.18;;;;;;;;;;5006402;28;20065;-43
2022/07/21 03:41:32;;;;;;;14.13;9.32;;;;;;;;;;5009118;28;20518;-47
2022/07/21 03:43:58;;;;;;;18.73;10.35;;;;;;;;;;5006806;28;20125;-43
2022/07/21 03:46:24;;;;;;;18.08;10.27;;;;;;;;;;5007335;28;20075;-42
2022/07/21 03:48:50;;;;;;;13.48;9.82;;;;;;;;;;5003554;28;20426;-42
2022/07/21 03:51:15;;;;;;;19.50;10.57;;;;;;;;;;5009590;28;20386;-43
2022/07/21 03:53:41;;;;;;;13.15;9.32;;;;;;;;;;5008882;28;20030;-47
2022/07/21 03:56:07;;;;;;;17.80;10.30;;;;;;;;;;5006912;28;20487;-42
2022/07/21 03:58:32;;;;;;;19.95;10.27;;;;;;;;;;5006322;28;20048;-47
2022/07/21 04:00:58;;;;;;;36.00;10.52;;;;;;;;;;5005588;28;20387;-48
2022/07/21 04:03:24;;;;;;;20.65;9.77;;;;;;;;;;5007027;28;20038;-48
2022/07/21 04:05:49;;;;;;;16.60;10.38;;;;;;;;;;5007666;28;20670;-49
2022/07/21 04:08:15;;;;;;;19.73;9.77;;;;;;;;;;5005198;28;20033;-45
2022/07/21 04:10:42;;;;;;;20.20;9.98;;;;;;;;;;5006125;28;20125;-47
2022/07/21 04:13:11;;;;;;;14.75;9.32;;;;;;;;;;5007542;28;20109;-43
2022/07/21 04:15:38;;;;;;;13.15;9.27;;;;;;;;;;5007678;28;20033;-43
2022/07/21 04:18:05;;;;;;;13.95;8.90;;;;;;;;;;5006811;28;20062;-46
2022/07/21 04:20:32;;;;;;;12.48;9.20;;;;;;;;;;5001141;28;20105;-43
2022/07/21 04:23:17;;;;;;;15.55;9.70;;;;;;;;;;5004854;28;20030;-47
2022/07/21 04:26:03;;;;;;;22.08;9.65;;;;;;;;;;5004134;28;20045;-46
2022/07/21 04:28:48;;;;;;;10.20;8.73;;;;;;;;;;5005966;28;20401;-46
2022/07/21 04:31:34;;;;;;;16.67;10.07;;;;;;;;;;5006378;28;20045;-42
2022/07/21 04:34:00;;;;;;;14.07;8.98;;;;;;;;;;5007191;28;20510;-45
2022/07/21 04:36:26;;;;;;;18.70;9.23;;;;;;;;;;5004928;28;20105;-46
2022/07/21 04:38:51;;;;;;;15.18;9.02;;;;;;;;;;5006628;28;20479;-44
2022/07/21 04:41:17;;;;;;;11.95;9.10;;;;;;;;;;5009464;28;20486;-48
2022/07/21 04:43:43;;;;;;;20.17;9.80;;;;;;;;;;5007478;28;20040;-43
2022/07/21 04:46:08;;;;;;;17.35;9.23;;;;;;;;;;5007251;28;20034;-43
2022/07/21 04:48:34;;;;;;;14.70;9.70;;;;;;;;;;5007218;28;20034;-46
2022/07/21 04:51:00;;;;;;;13.30;9.35;;;;;;;;;;5004534;28;20065;-46
2022/07/21 04:53:25;;;;;;;15.20;9.57;;;;;;;;;;5002728;28;20034;-44
2022/07/21 04:55:51;;;;;;;14.23;8.90;;;;;;;;;;5005942;28;20061;-45
2022/07/21 04:58:17;;;;;;;21.30;9.88;;;;;;;;;;5008083;28;20052;-43
2022/07/21 05:00:42;;;;;;;16.67;9.32;;;;;;;;;;5006071;28;20036;-41
2022/07/21 05:03:08;;;;;;;13.82;9.82;;;;;;;;;;5007273;28;20117;-43
2022/07/21 05:05:34;;;;;;;18.90;9.60;;;;;;;;;;5000779;28;20037;-46
2022/07/21 05:07:59;;;;;;;20.00;9.07;;;;;;;;;;5008111;28;20038;-46
2022/07/21 05:10:25;;;;;;;16.27;8.75;;;;;;;;;;5006347;28;20056;-42
2022/07/21 05:12:50;;;;;;;15.75;8.60;;;;;;;;;;5008878;28;20479;-45
2022/07/21 05:15:17;;;;;;;12.57;8.40;;;;;;;;;;5008896;28;20056;-42
2022/07/21 05:17:43;;;;;;;15.15;8.82;;;;;;;;;;5007385;28;20537;-43
2022/07/21 05:20:10;;;;;;;14.40;8.38;;;;;;;;;;4998399;28;20034;-45
2022/07/21 05:22:36;;;;;;;16.13;7.60;;;;;;;;;;5005018;28;20036;-42
2022/07/21 05:25:03;;;;;;;12.98;8.27;;;;;;;;;;5008763;28;20108;-48
2022/07/21 05:27:29;;;;;;;13.70;9.32;;;;;;;;;;4996684;28;20061;-42
2022/07/21 05:29:55;;;;;;;15.50;8.32;;;;;;;;;;5006525;28;20080;-42
2022/07/21 05:32:21;;;;;;;22.08;8.27;;;;;;;;;;5000995;28;20025;-41
2022/07/21 05:34:47;;;;;;;16.33;8.55;;;;;;;;;;4999850;28;20121;-42
2022/07/21 05:37:12;;;;;;;21.38;8.25;;;;;;;;;;5009162;28;20126;-42
2022/07/21 05:39:38;;;;;;;14.63;8.23;;;;;;;;;;4998609;28;20042;-46
2022/07/21 05:42:04;;;;;;;17.35;8.52;;;;;;;;;;5003536;28;20061;-42
2022/07/21 05:44:30;;;;;;;12.48;7.47;;;;;;;;;;5007119;28;20533;-42
2022/07/21 05:46:56;;;;;;;16.15;8.65;;;;;;;;;;5008425;28;20109;-42
2022/07/21 05:49:21;;;;;;;19.10;8.43;;;;;;;;;;5010534;28;20360;-43
2022/07/21 05:51:47;;;;;;;11.13;8.75;;;;;;;;;;5000396;28;22049;-42
2022/07/21 05:54:13;;;;;;;17.88;8.13;;;;;;;;;;4993604;28;20487;-45
2022/07/21 05:56:38;;;;;;;18.08;8.30;;;;;;;;;;4998519;28;20050;-42
2022/07/21 05:59:04;;;;;;;15.18;7.97;;;;;;;;;;4997175;28;20037;-42
2022/07/21 06:01:30;;;;;;;16.20;7.75;;;;;;;;;;4997189;28;20034;-42
2022/07/21 06:03:56;;;;;;;15.50;8.68;;;;;;;;;;4992857;28;20491;-46
2022/07/21 06:06:23;;;;;;;9.98;7.40;;;;;;;;;;5014989;28;20382;-45
2022/07/21 06:08:48;;;;;;;15.02;8.13;;;;;;;;;;5002241;28;20157;-44
2022/07/21 06:11:17;;;;;;;14.40;8.00;;;;;;;;;;5010296;28;20112;-42
2022/07/21 06:13:43;;;;;;;10.02;7.80;;;;;;;;;;5009590;28;20026;-44
2022/07/21 06:16:10;;;;;;;12.18;7.10;;;;;;;;;;5012778;28;20388;-42
2022/07/21 06:18:36;;;;;;;16.25;7.90;;;;;;;;;;5011331;28;20491;-45
2022/07/21 06:21:03;;;;;;;11.73;7.25;;;;;;;;;;5009438;28;20053;-43
2022/07/21 06:23:28;;;;;;;8.90;7.55;;;;;;;;;;5007293;28;20034;-43
2022/07/21 06:25:55;;;;;;;10.02;7.13;;;;;;;;;;5006253;28;20040;-43
2022/07/21 06:28:20;;;;;;;11.00;8.07;;;;;;;;;;5014442;28;20033;-45
2022/07/21 06:30:47;;;;;;;10.43;7.22;;;;;;;;;;5010947;28;20044;-41
2022/07/21 06:33:13;;;;;;;10.02;7.35;;;;;;;;;;5009191;28;20030;-42
2022/07/21 06:35:39;;;;;;;12.55;7.35;;;;;;;;;;5008910;28;20041;-43
2022/07/21 06:38:04;;;;;;;13.25;7.60;;;;;;;;;;5009909;28;20053;-43
2022/07/21 06:40:30;;;;;;;14.75;7.35;;;;;;;;;;5008120;28;20034;-42
2022/07/21 06:42:56;;;;;;;13.88;7.70;;;;;;;;;;5005995;28;20498;-42
2022/07/21 06:45:23;;;;;;;13.63;7.78;;;;;;;;;;5009250;28;20018;-44
2022/07/21 06:47:49;;;;;;;14.50;7.18;;;;;;;;;;5001378;28;20030;-45
2022/07/21 06:50:15;;;;;;;17.88;7.53;;;;;;;;;;5013995;28;20026;-42
2022/07/21 06:52:40;;;;;;;10.27;7.88;;;;;;;;;;5003021;28;20029;-42
2022/07/21 06:55:08;;;;;;;10.50;7.57;;;;;;;;;;5012492;28;20647;-44
2022/07/21 06:57:37;;;;;;;11.00;7.93;;;;;;;;;;5007609;28;20038;-43
2022/07/21 07:00:05;;;;;;;9.02;6.95;;;;;;;;;;5008697;28;20081;-42
2022/07/21 07:02:33;;;;;;;12.60;8.18;;;;;;;;;;5009470;28;20037;-42
2022/07/21 07:04:59;;;;;;;13.25;7.60;;;;;;;;;;5006094;28;20034;-42
2022/07/21 07:07:25;;;;;;;20.08;8.07;;;;;;;;;;5007866;28;20567;-42
2022/07/21 07:09:50;;;;;;;10.20;7.45;;;;;;;;;;5007083;28;20041;-43
2022/07/21 07:12:16;;;;;;;11.73;7.70;;;;;;;;;;5009126;28;20033;-43
2022/07/21 07:14:41;;;;;;;11.00;7.07;;;;;;;;;;5002922;28;20037;-43
2022/07/21 07:17:07;;;;;;;13.02;7.65;;;;;;;;;;5007522;28;20105;-43
2022/07/21 07:19:34;;;;;;;24.13;7.03;;;;;;;;;;5008454;28;20403;-42
2022/07/21 07:21:59;;;;;;;12.25;6.82;;;;;;;;;;5007210;28;20162;-43
2022/07/21 07:24:25;;;;;;;16.08;7.20;;;;;;;;;;5008338;28;20117;-42
2022/07/21 07:26:51;;;;;;;14.40;7.75;;;;;;;;;;5005400;28;20076;-42
2022/07/21 07:29:16;;;;;;;15.88;7.68;;;;;;;;;;5004414;28;20056;-43
2022/07/21 07:31:42;;;;;;;12.43;7.30;;;;;;;;;;5004924;28;20022;-42
2022/07/21 07:34:09;;;;;;;12.88;7.32;;;;;;;;;;5006287;28;20430;-42
2022/07/21 07:36:35;;;;;;;20.92;7.85;;;;;;;;;;5006259;28;20512;-42
2022/07/21 07:39:03;;;;;;;13.98;7.03;;;;;;;;;;4999412;28;20056;-44
2022/07/21 07:41:31;;;;;;;10.00;6.70;;;;;;;;;;5003766;28;20049;-42
2022/07/21 07:43:59;;;;;;;11.32;7.07;;;;;;;;;;5007671;28;20057;-42
2022/07/21 07:46:25;;;;;;;22.08;7.35;;;;;;;;;;5007315;28;20061;-43
2022/07/21 07:48:51;;;;;;;15.80;6.85;;;;;;;;;;5006758;28;20092;-42
2022/07/21 07:51:17;;;;;;;9.02;6.93;;;;;;;;;;5005113;28;20628;-42
2022/07/21 07:53:42;;;;;;;12.48;7.05;;;;;;;;;;5010857;28;20033;-46
2022/07/21 07:56:08;;;;;;;14.38;7.38;;;;;;;;;;5004407;28;20046;-42
2022/07/21 07:58:34;;;;;;;11.02;6.55;;;;;;;;;;5007702;28;20394;-44
2022/07/21 08:01:00;;;;;;;13.85;6.93;;;;;;;;;;5008396;28;20157;-42
2022/07/21 08:03:27;;;;;;;11.98;6.20;;;;;;;;;;5007134;28;20141;-45
2022/07/21 08:05:54;;;;;;;13.20;6.85;;;;;;;;;;5009373;28;20030;-43
2022/07/21 08:08:20;;;;;;;8.98;6.80;;;;;;;;;;5003016;28;20057;-45
2022/07/21 08:10:47;;;;;;;11.18;7.22;;;;;;;;;;5003976;28;20038;-43
2022/07/21 08:13:15;;;;;;;9.48;6.75;;;;;;;;;;5007293;28;20037;-46
2022/07/21 08:15:41;;;;;;;18.38;6.53;;;;;;;;;;5006819;28;20386;-42
2022/07/21 08:18:08;;;;;;;15.82;6.80;;;;;;;;;;5007179;28;20038;-42
2022/07/21 08:20:34;;;;;;;14.70;6.95;;;;;;;;;;5005897;28;20036;-42
2022/07/21 08:23:01;;;;;;;27.05;7.68;;;;;;;;;;5007669;28;20065;-43
2022/07/21 08:25:26;;;;;;;9.63;6.32;;;;;;;;;;5008593;28;20112;-43
2022/07/21 08:27:52;;;;;;;12.45;6.60;;;;;;;;;;5000274;28;20191;-44
2022/07/21 08:30:18;;;;;;;13.55;7.32;;;;;;;;;;5006467;28;20040;-44
2022/07/21 08:32:43;;;;;;;11.57;7.20;;;;;;;;;;5008048;28;20034;-43
2022/07/21 08:35:09;;;;;;;14.30;6.35;;;;;;;;;;4999350;28;20516;-42
2022/07/21 08:37:36;;;;;;;10.10;6.25;;;;;;;;;;5006611;28;20157;-43
2022/07/21 08:40:08;;;;;;;11.75;6.15;;;;;;;;;;5006584;28;21922;-42
2022/07/21 08:42:34;;;;;;;11.73;6.28;;;;;;;;;;5002696;28;20033;-45
2022/07/21 08:45:00;;;;;;;11.43;6.40;;;;;;;;;;5006095;28;20395;-43
2022/07/21 08:47:27;;;;;;;16.23;6.22;;;;;;;;;;5010449;28;20030;-43
2022/07/21 08:49:54;;;;;;;12.63;6.90;;;;;;;;;;5006603;28;20121;-43
2022/07/21 08:52:20;;;;;;;12.30;6.40;;;;;;;;;;5008818;28;20120;-42
2022/07/21 08:54:46;;;;;;;8.73;6.38;;;;;;;;;;5009983;28;20498;-43
2022/07/21 08:57:11;;;;;;;17.08;6.38;;;;;;;;;;5004744;28;20022;-42
2022/07/21 08:59:37;;;;;;;13.45;6.57;;;;;;;;;;5014498;28;20058;-42
2022/07/21 09:02:03;;;;;;;15.57;6.88;;;;;;;;;;5009345;28;20045;-43
2022/07/21 09:04:32;;;;;;;14.90;6.75;;;;;;;;;;5010203;28;20780;-44
2022/07/21 09:07:06;;;;;;;12.93;6.65;;;;;;;;;;5009173;28;20056;-44
2022/07/21 09:09:34;;;;;;;12.90;6.10;;;;;;;;;;5012816;28;20029;-43
2022/07/21 09:12:01;;;;;;;9.32;6.43;;;;;;;;;;5010811;28;20112;-42
2022/07/21 09:14:31;;;;;;;12.25;6.10;;;;;;;;;;5010283;28;20030;-42
2022/07/21 09:17:00;;;;;;;11.70;6.13;;;;;;;;;;5008700;28;20041;-43
2022/07/21 09:19:31;;;;;;;11.05;5.97;;;;;;;;;;5008909;28;20022;-42
2022/07/21 09:21:58;;;;;;;;;;;;;;;;;;5010571;28;20026;-43
2022/07/21 09:24:29;;;;;;;13.30;6.30;;;;;;;;;;5006507;28;19971;-43
2022/07/21 09:27:01;;;;;;;13.90;6.75;;;;;;;;;;5009729;28;20112;-44
2022/07/21 09:29:34;;;;;;;10.30;6.35;;;;;;;;;;5006433;28;20030;-43
2022/07/21 09:32:13;;;;;;;15.77;6.60;;;;;;;;;;5004589;28;20124;-43
2022/07/21 09:34:39;;;;;;;9.63;6.50;;;;;;;;;;5008435;28;20033;-43
2022/07/21 09:37:06;;;;;;;10.13;6.53;;;;;;;;;;5010296;28;20029;-43
2022/07/21 09:39:48;;;;;;;8.10;6.05;;;;;;;;;;5008038;28;20021;-42
2022/07/21 09:42:16;;;;;;;;;;;;;;;;;;5008353;28;20034;-42
2022/07/21 09:44:44;;;;;;;12.52;6.20;;;;;;;;;;5008018;28;20081;-43
2022/07/21 09:47:15;;;;;;;15.18;6.05;;;;;;;;;;5008987;28;20034;-43
2022/07/21 09:49:42;;;;;;;8.40;5.63;;;;;;;;;;5009337;28;20026;-43
2022/07/21 09:52:30;;;;;;;14.43;5.85;;;;;;;;;;5009529;28;20267;-42
2022/07/21 09:55:03;;;;;;;14.32;6.07;;;;;;;;;;5004242;28;20041;-43
2022/07/21 09:57:29;;;;;;;12.13;6.60;;;;;;;;;;5008508;28;20041;-42
2022/07/21 09:59:56;;;;;;;11.30;6.25;;;;;;;;;;5006931;28;20017;-42
2022/07/21 10:02:27;;;;;;;9.48;5.88;;;;;;;;;;5008187;28;20076;-44
2022/07/21 10:05:04;;;;;;;9.57;6.30;;;;;;;;;;5003290;28;20072;-42
2022/07/21 10:07:30;;;;;;;7.55;5.72;;;;;;;;;;4998074;28;20057;-44
2022/07/21 10:09:57;;;;;;;7.32;5.65;;;;;;;;;;4996134;28;20084;-43
2022/07/21 10:12:23;;;;;;;9.70;6.00;;;;;;;;;;5005107;28;20034;-43
2022/07/21 10:14:50;;;;;;;13.18;6.35;;;;;;;;;;5008091;28;20073;-43
2022/07/21 10:17:17;;;;;;;8.30;6.28;;;;;;;;;;5009472;28;20109;-43
2022/07/21 10:20:07;;;;;;;18.77;5.80;;;;;;;;;;5010031;28;20064;-43
2022/07/21 10:23:02;;;;;;;9.73;5.43;;;;;;;;;;5009780;28;20044;-43
2022/07/21 10:25:29;;;;;;;9.35;5.95;;;;;;;;;;5003811;28;20165;-43
2022/07/21 10:28:10;;;;;;;11.65;6.35;;;;;;;;;;5008535;28;20157;-43
2022/07/21 10:30:44;;;;;;;7.60;6.03;;;;;;;;;;5006267;28;20030;-43
2022/07/21 10:33:10;;;;;;;8.68;5.88;;;;;;;;;;5002955;28;20083;-42
2022/07/21 10:35:44;;;;;;;11.20;5.78;;;;;;;;;;4999018;28;20402;-43
2022/07/21 10:38:30;;;;;;;12.77;5.90;;;;;;;;;;4997374;28;20036;-42
2022/07/21 10:40:58;;;;;;;13.73;5.68;;;;;;;;;;5002855;28;20021;-43
2022/07/21 10:43:23;;;;;;;7.68;5.22;;;;;;;;;;5004646;28;20105;-43
2022/07/21 10:45:50;;;;;;;6.25;5.07;;;;;;;;;;5007510;28;20667;-43
2022/07/21 10:48:37;;;;;;;8.55;4.80;;;;;;;;;;5006776;28;20026;-43
2022/07/21 10:51:11;;;;;;;7.50;5.10;;;;;;;;;;5006249;28;20386;-44
2022/07/21 10:53:37;;;;;;;7.93;4.65;;;;;;;;;;5003520;28;20066;-45
2022/07/21 10:56:04;;;;;;;7.13;5.00;;;;;;;;;;5000108;28;20112;-43
2022/07/21 10:58:37;;;;;;;12.93;5.35;;;;;;;;;;5003028;28;20037;-42
2022/07/21 11:01:02;;;;;;;6.72;4.35;;;;;;;;;;5002415;28;20033;-44
2022/07/21 11:03:39;;;;;;;9.90;5.10;;;;;;;;;;5005162;28;20363;-41
2022/07/21 11:06:05;;;;;;;6.00;4.38;;;;;;;;;;5005189;28;20490;-43
2022/07/21 11:08:39;;;;;;;10.50;4.28;;;;;;;;;;5005559;28;20026;-43
2022/07/21 11:11:15;;;;;;;8.57;4.60;;;;;;;;;;5007483;28;20038;-47
2022/07/21 11:14:09;;;;;;;6.28;4.20;;;;;;;;;;5007970;28;20104;-42
2022/07/21 11:16:52;;;;;;;12.82;4.32;;;;;;;;;;5004911;28;20048;-43
2022/07/21 11:19:38;;;;;;;10.38;4.65;;;;;;;;;;5004722;28;23992;-43
2022/07/21 11:22:11;;;;;;;8.85;4.35;;;;;;;;;;5003638;28;20105;-45
2022/07/21 11:24:37;;;;;;;8.23;4.75;;;;;;;;;;5003597;28;20038;-48
2022/07/21 11:27:05;;;;;;;13.15;4.45;;;;;;;;;;5008119;28;20430;-43
2022/07/21 11:29:31;;;;;;;7.57;4.30;;;;;;;;;;5007395;28;20030;-47
2022/07/21 11:32:01;;;;;;;6.28;4.07;;;;;;;;;;5006946;28;20034;-44
2022/07/21 11:34:46;;;;;;;9.20;4.25;;;;;;;;;;5006567;28;20108;-44
2022/07/21 11:37:17;;;;;;;7.40;4.10;;;;;;;;;;4999220;28;20575;-46
2022/07/21 11:39:43;;;;;;;9.48;3.90;;;;;;;;;;5005273;28;20034;-46
2022/07/21 11:42:12;;;;;;;5.15;4.03;;;;;;;;;;5005815;28;20113;-45
2022/07/21 11:44:40;;;;;;;9.38;4.78;;;;;;;;;;4997089;28;20038;-43
2022/07/21 11:47:09;;;;;;;8.13;4.00;;;;;;;;;;4997473;28;20107;-44
2022/07/21 11:49:35;;;;;;;7.78;4.22;;;;;;;;;;5002167;28;20395;-43
2022/07/21 11:52:04;;;;;;;7.47;4.20;;;;;;;;;;5000708;28;20026;-45
2022/07/21 11:54:42;;;;;;;4.90;3.63;;;;;;;;;;5002303;28;20026;-45
2022/07/21 11:57:09;;;;;;;5.93;3.72;;;;;;;;;;5004353;28;20506;-47
2022/07/21 11:59:37;;;;;;;4.30;3.90;;;;;;;;;;5004958;28;20739;-45
2022/07/21 12:02:09;;;;;;;5.72;4.00;;;;;;;;;;5003964;28;20092;-43
2022/07/21 12:04:35;;;;;;;;;;;;;;;;;;5004513;28;20030;-44
2022/07/21 12:07:04;;;;;;;4.25;3.80;;;;;;;;;;4998638;28;19928;-47
2022/07/21 12:09:30;;;;;;;5.28;4.20;;;;;;;;;;5008024;28;20176;-43
2022/07/21 12:11:56;;;;;;;8.65;3.70;;;;;;;;;;5002858;28;20034;-44
2022/07/21 12:14:39;;;;;;;7.75;4.10;;;;;;;;;;4995796;28;20148;-45
2022/07/21 12:17:05;;;;;;;5.47;3.95;;;;;;;;;;5002964;28;20036;-43
2022/07/21 12:19:31;;;;;;;7.85;3.58;;;;;;;;;;5003389;28;20034;-43
2022/07/21 12:21:56;;;;;;;4.60;3.47;;;;;;;;;;5008233;28;20045;-45
2022/07/21 12:24:42;;;;;;;6.70;3.63;;;;;;;;;;5010605;28;20477;-44
2022/07/21 12:27:12;;;;;;;4.47;3.95;;;;;;;;;;5008875;28;20448;-46
2022/07/21 12:29:37;;;;;;;8.80;3.97;;;;;;;;;;5001340;28;20049;-45
2022/07/21 12:32:03;;;;;;;5.80;3.90;;;;;;;;;;5004868;28;20030;-45
2022/07/21 12:34:29;;;;;;;8.15;3.72;;;;;;;;;;5007703;28;20041;-43
2022/07/21 12:36:55;;;;;;;7.53;4.05;;;;;;;;;;5007714;28;20108;-44
2022/07/21 12:42:11;;;;;;;4.32;3.92;;;;;;;;;;5004584;28;20026;-43
2022/07/21 12:44:37;;;;;;;8.40;3.70;;;;;;;;;;5006787;28;20054;-48
2022/07/21 12:47:18;;;;;;;3.97;3.58;;;;;;;;;;5007952;28;20034;-43
2022/07/21 12:50:05;;;;;;;3.65;3.15;;;;;;;;;;5007663;28;20069;-45
2022/07/21 12:52:32;;;;;;;4.60;3.60;;;;;;;;;;5007232;28;20229;-43
2022/07/21 12:55:00;;;;;;;5.13;3.90;;;;;;;;;;5005958;28;20054;-45
2022/07/21 12:57:32;;;;;;;6.15;4.13;;;;;;;;;;5006248;28;20034;-42
2022/07/21 12:59:59;;;;;;;4.57;3.55;;;;;;;;;;5005420;28;20033;-43
2022/07/21 13:02:26;;;;;;;5.70;3.90;;;;;;;;;;5006578;28;20038;-43
2022/07/21 13:04:53;;;;;;;4.90;3.90;;;;;;;;;;5006194;28;20061;-43
2022/07/21 13:07:19;;;;;;;4.15;3.75;;;;;;;;;;5008922;28;20112;-44
2022/07/21 13:09:45;;;;;;;9.15;3.70;;;;;;;;;;5008308;28;20493;-43
2022/07/21 13:12:14;;;;;;;7.10;3.50;;;;;;;;;;5007299;28;20025;-43
2022/07/21 13:14:41;;;;;;;8.73;3.40;;;;;;;;;;5005743;28;20022;-46
2022/07/21 13:17:08;;;;;;;7.07;3.60;;;;;;;;;;4995931;28;20034;-43
2022/07/21 13:19:37;;;;;;;3.70;3.33;;;;;;;;;;4997338;28;20038;-43
2022/07/21 13:22:04;;;;;;;7.00;3.38;;;;;;;;;;5003423;28;20026;-43
2022/07/21 13:24:29;;;;;;;4.30;3.75;;;;;;;;;;5004809;28;20033;-43
2022/07/21 13:26:55;;;;;;;12.23;4.40;;;;;;;;;;5006097;28;20651;-43
2022/07/21 13:29:21;;;;;;;7.53;3.80;;;;;;;;;;5005444;28;20034;-43
2022/07/21 13:31:46;;;;;;;13.90;4.00;;;;;;;;;;5004194;28;20049;-43
2022/07/21 13:34:12;;;;;;;7.60;3.80;;;;;;;;;;5004967;28;20068;-43
2022/07/21 13:36:38;;;;;;;5.70;3.50;;;;;;;;;;5006913;28;20037;-44
2022/07/21 13:39:05;;;;;;;8.73;3.90;;;;;;;;;;5008111;28;20022;-44
2022/07/21 13:41:33;;;;;;;7.20;3.90;;;;;;;;;;5007506;28;20017;-42
2022/07/21 13:43:59;;;;;;;5.13;3.47;;;;;;;;;;5007419;28;20034;-43
2022/07/21 13:46:25;;;;;;;8.18;3.70;;;;;;;;;;5007442;28;20084;-44
2022/07/21 13:48:51;;;;;;;10.32;3.70;;;;;;;;;;5005381;28;20038;-44
2022/07/21 13:51:18;;;;;;;7.78;3.28;;;;;;;;;;5005400;28;20026;-44
2022/07/21 13:53:46;;;;;;;7.18;3.50;;;;;;;;;;5005040;28;20034;-43
2022/07/21 13:56:12;;;;;;;5.50;3.55;;;;;;;;;;4999867;28;20077;-43
2022/07/21 13:58:40;;;;;;;12.13;3.97;;;;;;;;;;5006363;28;20070;-44
2022/07/21 14:01:07;;;;;;;10.43;3.92;;;;;;;;;;5010558;28;20116;-43
2022/07/21 14:03:34;;;;;;;5.03;3.15;;;;;;;;;;5006181;28;20715;-43
2022/07/21 14:06:01;;;;;;;9.18;3.65;;;;;;;;;;5007235;28;20026;-43
2022/07/21 14:08:27;;;;;;;6.32;3.90;;;;;;;;;;5003654;28;20037;-43
2022/07/21 14:10:52;;;;;;;8.35;3.30;;;;;;;;;;5005808;28;20026;-43
2022/07/21 14:13:18;;;;;;;5.93;3.72;;;;;;;;;;5007554;28;20514;-43
2022/07/21 14:15:44;;;;;;;7.75;3.83;;;;;;;;;;5007449;28;20065;-43
2022/07/21 14:18:10;;;;;;;6.28;3.70;;;;;;;;;;5002000;28;20044;-43
2022/07/21 14:20:37;;;;;;;6.43;3.35;;;;;;;;;;5006983;28;20033;-45
2022/07/21 14:23:03;;;;;;;8.95;3.90;;;;;;;;;;5005208;28;20026;-43
2022/07/21 14:25:28;;;;;;;9.10;4.13;;;;;;;;;;5008491;28;20498;-43
2022/07/21 14:27:56;;;;;;;9.85;3.80;;;;;;;;;;5004090;28;20438;-43
2022/07/21 14:30:24;;;;;;;7.50;3.47;;;;;;;;;;5008110;28;20018;-45
2022/07/21 14:32:50;;;;;;;5.90;3.40;;;;;;;;;;5006022;28;20076;-46
2022/07/21 14:35:18;;;;;;;5.72;3.22;;;;;;;;;;5005766;28;20116;-43
2022/07/21 14:37:45;;;;;;;5.70;3.30;;;;;;;;;;5007141;28;20364;-45
2022/07/21 14:40:12;;;;;;;3.88;2.88;;;;;;;;;;5003074;28;20083;-43
2022/07/21 14:42:39;;;;;;;3.78;3.10;;;;;;;;;;5003855;28;20063;-43